Time;durP1;ratioP1;P1;durP2;ratioP2;P2;SDS_P1;SDS_P2;PMS_P1;PMS_P2;Temp;Humidity;BMP_temperature;BMP_pressure;BME280_temperature;BME280_humidity;BME280_pressure;Samples;Min_cycle;Max_cycle;Signal;HPM_P1;HPM_P2
2021/04/06 00:00:42;;;;;;;5.77;0.70;;;3.10;84.10;;;;;;5073841;28;20055;-75
2021/04/06 00:03:14;;;;;;;;;;;3.20;84.00;;;;;;5085595;28;20055;-75
2021/04/06 00:05:43;;;;;;;1.83;0.38;;;3.20;83.90;;;;;;5078215;28;19924;-76
2021/04/06 00:08:11;;;;;;;5.97;0.70;;;3.20;83.80;;;;;;5082162;28;20200;-76
2021/04/06 00:10:49;;;;;;;5.80;0.37;;;3.10;84.00;;;;;;5071071;28;20140;-76
2021/04/06 00:13:17;;;;;;;2.17;0.30;;;2.90;84.40;;;;;;5088776;28;20056;-75
2021/04/06 00:15:46;;;;;;;4.23;0.40;;;2.80;85.00;;;;;;5110624;28;20037;-75
2021/04/06 00:18:16;;;;;;;3.93;0.60;;;2.70;85.30;;;;;;5112168;28;20377;-75
2021/04/06 00:20:46;;;;;;;1.93;0.40;;;2.60;85.90;;;;;;5089735;28;20056;-75
2021/04/06 00:23:14;;;;;;;5.37;0.40;;;2.60;86.10;;;;;;5090449;28;20047;-75
2021/04/06 00:25:44;;;;;;;4.67;0.53;;;2.60;86.40;;;;;;5089841;28;20493;-75
2021/04/06 00:28:23;;;;;;;6.77;0.57;;;2.60;86.70;;;;;;5090418;28;20046;-75
2021/04/06 00:30:54;;;;;;;6.63;0.70;;;2.60;86.70;;;;;;5091398;28;20036;-75
2021/04/06 00:33:26;;;;;;;5.10;0.40;;;2.50;86.90;;;;;;5070279;28;20513;-75
2021/04/06 00:35:56;;;;;;;6.95;0.82;;;2.50;86.90;;;;;;5091400;28;20036;-75
2021/04/06 00:38:26;;;;;;;4.53;0.37;;;2.40;87.70;;;;;;5090972;28;20040;-75
2021/04/06 00:40:58;;;;;;;3.23;0.40;;;2.40;87.60;;;;;;5090630;28;20043;-75
2021/04/06 00:43:34;;;;;;;4.27;0.70;;;2.40;87.60;;;;;;5089213;28;20389;-74
2021/04/06 00:46:04;;;;;;;4.40;0.63;;;2.50;88.00;;;;;;5087581;28;20574;-73
2021/04/06 00:48:32;;;;;;;6.60;0.50;;;2.50;88.00;;;;;;5089322;28;20044;-73
2021/04/06 00:51:06;;;;;;;4.00;0.50;;;2.50;88.00;;;;;;5105394;28;20071;-74
2021/04/06 00:54:03;;;;;;;2.20;0.33;;;2.50;87.90;;;;;;5089367;28;20453;-75
2021/04/06 00:56:34;;;;;;;4.57;0.77;;;2.50;87.70;;;;;;5081053;28;20078;-75
2021/04/06 00:59:07;;;;;;;4.77;0.53;;;2.60;88.00;;;;;;5090944;28;20502;-72
2021/04/06 01:01:45;;;;;;;2.97;0.40;;;2.60;87.70;;;;;;5090841;28;20506;-72
2021/04/06 01:04:14;;;;;;;3.97;0.63;;;2.60;87.80;;;;;;5086751;28;20380;-72
2021/04/06 01:07:08;;;;;;;2.40;0.33;;;2.70;87.70;;;;;;5092255;28;20071;-72
2021/04/06 01:09:47;;;;;;;5.63;0.50;;;2.70;87.50;;;;;;5087894;28;20044;-70
2021/04/06 01:12:18;;;;;;;6.97;1.30;;;2.70;87.70;;;;;;5093742;28;20085;-72
2021/04/06 01:14:47;;;;;;;7.60;0.93;;;2.60;87.80;;;;;;5090985;28;20031;-70
2021/04/06 01:17:15;;;;;;;9.40;0.73;;;2.60;88.10;;;;;;5093200;28;20043;-70
2021/04/06 01:19:43;;;;;;;4.83;0.50;;;2.60;88.00;;;;;;5092657;28;20044;-72
2021/04/06 01:22:12;;;;;;;5.50;0.73;;;2.60;88.10;;;;;;5093336;28;20115;-72
2021/04/06 01:24:39;;;;;;;7.07;1.20;;;2.50;88.00;;;;;;5093443;28;20043;-70
2021/04/06 01:27:09;;;;;;;4.17;1.00;;;2.50;88.10;;;;;;5088235;28;20510;-70
2021/04/06 01:29:36;;;;;;;4.47;0.87;;;2.50;88.40;;;;;;5093285;28;20068;-70
2021/04/06 01:32:04;;;;;;;5.83;0.60;;;2.50;88.40;;;;;;5093317;28;20074;-71
2021/04/06 01:34:31;;;;;;;7.13;0.80;;;2.50;88.50;;;;;;5093246;28;20522;-70
2021/04/06 01:36:58;;;;;;;6.10;1.00;;;2.60;88.50;;;;;;5091953;28;20509;-69
2021/04/06 01:39:28;;;;;;;6.87;0.90;;;2.60;88.60;;;;;;5093985;28;20459;-70
2021/04/06 01:42:00;;;;;;;6.57;0.70;;;2.60;88.60;;;;;;5091752;28;20396;-70
2021/04/06 01:44:27;;;;;;;5.13;0.98;;;2.60;88.60;;;;;;5092794;28;20484;-70
2021/04/06 01:46:54;;;;;;;6.77;0.93;;;2.50;88.50;;;;;;5091794;28;20059;-69
2021/04/06 01:49:21;;;;;;;9.50;1.10;;;2.50;88.60;;;;;;5092659;28;20089;-70
2021/04/06 01:51:48;;;;;;;6.37;1.13;;;2.50;88.70;;;;;;5093360;28;20032;-70
2021/04/06 01:54:18;;;;;;;7.00;0.90;;;2.50;88.60;;;;;;5092613;28;20081;-69
2021/04/06 01:57:00;;;;;;;6.57;1.00;;;2.50;89.40;;;;;;5089555;28;20089;-69
2021/04/06 01:59:32;;;;;;;5.90;0.60;;;2.50;88.80;;;;;;5090327;28;20036;-70
2021/04/06 02:02:01;;;;;;;11.23;1.10;;;2.50;88.70;;;;;;5092136;28;20501;-70
2021/04/06 02:04:29;;;;;;;6.73;1.20;;;2.60;88.70;;;;;;5092856;28;20437;-70
2021/04/06 02:06:58;;;;;;;9.00;1.40;;;2.60;88.70;;;;;;5088660;28;20109;-70
2021/04/06 02:09:26;;;;;;;3.73;0.97;;;2.60;88.70;;;;;;5087685;28;20064;-70
2021/04/06 02:11:53;;;;;;;10.77;0.87;;;2.60;88.50;;;;;;5092761;28;20047;-70
2021/04/06 02:14:22;;;;;;;9.30;1.17;;;2.60;88.50;;;;;;5092102;28;20090;-70
2021/04/06 02:16:56;;;;;;;8.17;1.13;;;2.60;88.50;;;;;;5090214;28;20048;-69
2021/04/06 02:19:31;;;;;;;11.20;1.57;;;2.60;88.50;;;;;;5091299;28;20044;-70
2021/04/06 02:22:11;;;;;;;10.37;1.77;;;2.60;88.70;;;;;;5092814;28;20044;-69
2021/04/06 02:24:40;;;;;;;7.77;1.00;;;2.60;88.60;;;;;;5092324;28;20413;-69
2021/04/06 02:27:19;;;;;;;6.47;1.13;;;2.60;88.30;;;;;;5092976;28;20043;-70
2021/04/06 02:29:48;;;;;;;8.97;1.30;;;2.50;88.30;;;;;;5092226;28;20040;-72
2021/04/06 02:32:18;;;;;;;8.13;0.83;;;2.50;88.30;;;;;;5091067;28;20097;-72
2021/04/06 02:34:48;;;;;;;8.30;1.23;;;2.50;88.30;;;;;;5092374;28;20119;-72
2021/04/06 02:37:21;;;;;;;9.53;1.40;;;2.50;88.40;;;;;;5092542;28;20499;-72
2021/04/06 02:39:53;;;;;;;8.70;1.52;;;2.50;88.40;;;;;;5092430;28;20052;-72
2021/04/06 02:42:30;;;;;;;6.10;0.70;;;2.50;88.30;;;;;;5093000;28;20198;-72
2021/04/06 02:45:07;;;;;;;7.20;0.90;;;2.40;88.10;;;;;;5093937;28;20037;-72
2021/04/06 02:47:38;;;;;;;7.67;0.90;;;2.40;88.20;;;;;;5100037;27;20403;-72
2021/04/06 02:50:13;;;;;;;8.23;1.23;;;2.40;88.10;;;;;;5092152;28;20495;-70
2021/04/06 02:52:40;;;;;;;6.77;1.07;;;2.40;88.10;;;;;;5088080;28;20036;-70
2021/04/06 02:55:10;;;;;;;7.67;0.80;;;2.30;87.90;;;;;;5090737;28;20415;-70
2021/04/06 02:57:55;;;;;;;6.50;0.83;;;2.40;87.90;;;;;;5090292;28;20047;-70
2021/04/06 03:00:32;;;;;;;8.47;0.70;;;2.40;87.70;;;;;;5090301;28;20040;-72
2021/04/06 03:03:04;;;;;;;3.13;0.50;;;2.40;87.60;;;;;;5091904;28;20044;-70
2021/04/06 03:05:33;;;;;;;4.03;0.70;;;2.40;87.40;;;;;;5091728;28;20044;-70
2021/04/06 03:08:00;;;;;;;3.30;0.43;;;2.50;87.30;;;;;;5090338;28;20514;-69
2021/04/06 03:10:30;;;;;;;6.87;0.67;;;2.50;87.20;;;;;;5091786;28;20118;-72
2021/04/06 03:13:13;;;;;;;7.00;1.10;;;2.50;87.20;;;;;;5070364;28;20053;-73
2021/04/06 03:15:41;;;;;;;5.93;0.70;;;2.50;86.80;;;;;;5091264;28;20032;-72
2021/04/06 03:18:10;;;;;;;5.60;0.50;;;2.50;86.70;;;;;;5074042;28;20047;-73
2021/04/06 03:20:38;;;;;;;6.23;0.53;;;2.40;86.80;;;;;;5091003;28;20048;-72
2021/04/06 03:23:06;;;;;;;1.63;0.20;;;2.30;87.10;;;;;;5092078;28;20070;-72
2021/04/06 03:25:35;;;;;;;8.07;0.63;;;2.30;87.30;;;;;;5089781;28;20070;-72
2021/04/06 03:28:10;;;;;;;3.40;0.40;;;2.20;87.60;;;;;;5080746;28;20044;-72
2021/04/06 03:30:38;;;;;;;5.70;0.67;;;2.20;88.00;;;;;;5073641;28;20048;-73
2021/04/06 03:33:09;;;;;;;5.03;0.53;;;2.20;88.20;;;;;;5089183;28;20039;-72
2021/04/06 03:35:40;;;;;;;2.97;0.30;;;2.20;88.10;;;;;;5086356;28;20477;-72
2021/04/06 03:38:09;;;;;;;5.10;0.70;;;2.20;88.10;;;;;;5090692;28;20044;-73
2021/04/06 03:40:38;;;;;;;2.87;0.73;;;2.10;88.30;;;;;;5073477;28;20040;-73
2021/04/06 03:43:20;;;;;;;6.77;0.37;;;2.00;88.50;;;;;;5088759;28;20143;-73
2021/04/06 03:45:57;;;;;;;4.17;0.73;;;2.00;88.70;;;;;;5090160;28;20047;-73
2021/04/06 03:48:26;;;;;;;2.97;0.30;;;1.90;88.80;;;;;;5088348;28;20046;-71
2021/04/06 03:50:53;;;;;;;3.33;0.40;;;1.80;88.90;;;;;;5090843;28;20459;-71
2021/04/06 03:53:21;;;;;;;1.80;0.57;;;1.80;89.00;;;;;;5073488;28;20048;-71
2021/04/06 03:56:06;;;;;;;3.33;0.20;;;1.80;89.00;;;;;;5089840;28;20055;-71
2021/04/06 03:58:58;;;;;;;1.63;0.30;;;1.80;89.10;;;;;;5091423;28;20130;-73
2021/04/06 04:01:21;;;;;;;2.00;0.40;;;1.70;89.10;;;;;;5090231;28;20051;-73
2021/04/06 04:03:55;;;;;;;1.00;0.20;;;1.70;89.20;;;;;;5085866;28;20056;-73
2021/04/06 04:06:29;;;;;;;2.97;0.23;;;1.80;89.30;;;;;;5090892;28;20457;-71
2021/04/06 04:08:56;;;;;;;2.13;0.30;;;1.80;89.20;;;;;;5084818;28;20040;-71
2021/04/06 04:11:23;;;;;;;2.27;0.47;;;1.80;89.20;;;;;;5089719;28;20055;-71
2021/04/06 04:13:49;;;;;;;1.90;0.50;;;1.80;89.20;;;;;;5090706;28;20059;-71
2021/04/06 04:16:16;;;;;;;4.23;0.40;;;1.80;89.40;;;;;;5089402;28;20040;-70
2021/04/06 04:18:42;;;;;;;2.17;0.40;;;1.80;89.60;;;;;;5089464;28;20046;-71
2021/04/06 04:21:12;;;;;;;3.23;0.67;;;1.80;89.70;;;;;;5089959;28;20040;-71
2021/04/06 04:23:39;;;;;;;1.73;0.30;;;1.90;89.60;;;;;;5089837;28;20042;-71
2021/04/06 04:26:07;;;;;;;3.23;0.40;;;1.90;89.50;;;;;;5088915;28;20044;-71
2021/04/06 04:28:34;;;;;;;5.60;0.50;;;1.80;89.70;;;;;;5090598;28;20127;-71
2021/04/06 04:31:05;;;;;;;4.10;0.70;;;1.80;89.80;;;;;;5089270;28;20048;-71
2021/04/06 04:33:31;;;;;;;4.50;0.63;;;1.80;90.00;;;;;;5071903;28;20047;-70
2021/04/06 04:35:58;;;;;;;3.57;0.40;;;1.80;90.00;;;;;;5072598;28;20040;-71
2021/04/06 04:38:24;;;;;;;2.33;0.43;;;1.90;90.00;;;;;;5089515;28;20089;-71
2021/04/06 04:40:51;;;;;;;2.57;0.30;;;1.90;90.00;;;;;;5092568;28;20055;-70
2021/04/06 04:43:18;;;;;;;1.70;0.40;;;1.90;90.00;;;;;;5088530;28;20495;-70
2021/04/06 04:45:45;;;;;;;2.77;0.70;;;2.00;89.90;;;;;;5092781;28;20048;-71
2021/04/06 04:48:13;;;;;;;3.13;0.67;;;2.10;89.90;;;;;;5072695;28;20047;-71
2021/04/06 04:50:39;;;;;;;4.77;0.43;;;2.10;89.80;;;;;;5093981;28;20123;-71
2021/04/06 04:53:06;;;;;;;5.00;0.50;;;2.10;89.60;;;;;;5075450;28;20040;-70
2021/04/06 04:55:32;;;;;;;5.40;0.40;;;2.10;89.50;;;;;;5093385;28;20483;-70
2021/04/06 04:57:59;;;;;;;1.47;0.20;;;2.10;89.60;;;;;;5093562;28;20044;-71
2021/04/06 05:00:25;;;;;;;2.93;0.33;;;2.10;89.60;;;;;;5094316;28;20040;-70
2021/04/06 05:02:52;;;;;;;4.00;0.30;;;2.10;89.90;;;;;;5093336;28;20032;-70
2021/04/06 05:05:19;;;;;;;1.80;0.40;;;2.10;89.90;;;;;;5094545;28;20032;-70
2021/04/06 05:07:46;;;;;;;1.63;0.20;;;2.10;89.80;;;;;;5092882;28;20395;-70
2021/04/06 05:10:15;;;;;;;1.73;0.20;;;2.20;89.80;;;;;;5093110;28;20036;-71
2021/04/06 05:12:45;;;;;;;3.83;0.40;;;2.20;89.60;;;;;;5075785;28;20136;-70
2021/04/06 05:15:11;;;;;;;5.07;0.60;;;2.10;89.50;;;;;;5092963;28;20491;-70
2021/04/06 05:17:38;;;;;;;6.07;0.50;;;2.10;89.60;;;;;;5074248;28;20499;-71
2021/04/06 05:20:06;;;;;;;4.40;0.50;;;2.10;89.60;;;;;;5094226;28;20039;-70
2021/04/06 05:22:33;;;;;;;3.27;0.47;;;2.00;89.70;;;;;;5094239;28;20047;-70
2021/04/06 05:25:00;;;;;;;2.03;0.37;;;2.00;89.70;;;;;;5093547;28;20491;-71
2021/04/06 05:27:27;;;;;;;4.20;0.40;;;2.00;89.80;;;;;;5091841;28;20044;-71
2021/04/06 05:29:54;;;;;;;3.83;0.53;;;2.00;89.70;;;;;;5076174;28;20097;-71
2021/04/06 05:32:21;;;;;;;3.20;0.70;;;2.00;89.70;;;;;;5093545;28;20047;-71
2021/04/06 05:34:47;;;;;;;1.87;0.40;;;1.90;89.70;;;;;;5090780;28;20407;-71
2021/04/06 05:37:14;;;;;;;1.73;0.30;;;1.90;89.80;;;;;;5094136;28;20040;-71
2021/04/06 05:39:41;;;;;;;1.33;0.20;;;1.90;89.80;;;;;;5091513;28;20048;-71
2021/04/06 05:42:14;;;;;;;2.87;1.07;;;1.90;89.70;;;;;;5075958;28;20055;-71
2021/04/06 05:44:42;;;;;;;3.25;0.38;;;1.90;89.80;;;;;;5093807;28;20043;-71
2021/04/06 05:47:25;;;;;;;2.03;0.30;;;1.80;89.80;;;;;;5094962;28;20036;-74
2021/04/06 05:49:52;;;;;;;;;;;1.80;89.70;;;;;;5090820;28;20036;-71
2021/04/06 05:52:19;;;;;;;3.67;0.33;;;1.80;89.80;;;;;;5090601;28;19982;-72
2021/04/06 05:54:45;;;;;;;4.13;0.57;;;1.80;89.60;;;;;;5091507;28;20055;-73
2021/04/06 05:57:12;;;;;;;1.30;0.40;;;1.90;89.70;;;;;;5092995;28;20766;-71
2021/04/06 05:59:38;;;;;;;2.37;0.30;;;1.90;89.60;;;;;;5092918;28;20044;-73
2021/04/06 06:02:09;;;;;;;3.30;0.30;;;2.00;89.50;;;;;;5086562;28;20055;-71
2021/04/06 06:04:36;;;;;;;3.67;0.50;;;2.00;89.40;;;;;;5073254;28;20051;-71
2021/04/06 06:07:03;;;;;;;3.90;0.97;;;2.10;89.40;;;;;;5092980;28;20044;-71
2021/04/06 06:09:31;;;;;;;2.60;0.50;;;2.20;89.20;;;;;;5092156;28;20036;-73
2021/04/06 06:11:59;;;;;;;3.37;0.63;;;2.30;89.10;;;;;;5092373;28;20036;-71
2021/04/06 06:14:36;;;;;;;2.10;0.40;;;2.40;89.00;;;;;;5091944;28;20700;-71
2021/04/06 06:17:16;;;;;;;4.60;0.47;;;2.50;88.70;;;;;;5092998;28;20387;-71
2021/04/06 06:19:45;;;;;;;2.87;0.40;;;2.60;88.40;;;;;;5073898;28;20040;-72
2021/04/06 06:22:14;;;;;;;1.83;0.40;;;2.60;88.20;;;;;;5093222;28;20042;-70
2021/04/06 06:24:45;;;;;;;2.43;0.67;;;2.60;88.20;;;;;;5093152;28;20109;-73
2021/04/06 06:27:36;;;;;;;1.27;0.30;;;2.60;88.20;;;;;;5081055;28;20127;-73
2021/04/06 06:30:35;;;;;;;1.93;0.37;;;2.70;88.20;;;;;;5084444;28;20132;-70
2021/04/06 06:33:12;;;;;;;5.33;0.70;;;2.80;88.10;;;;;;5060986;28;20830;-70
2021/04/06 06:35:41;;;;;;;3.63;0.50;;;2.80;88.00;;;;;;5076875;28;20519;-71
2021/04/06 06:38:34;;;;;;;4.83;0.67;;;2.90;87.60;;;;;;5082235;28;20039;-74
2021/04/06 06:41:13;;;;;;;;;;;3.10;87.30;;;;;;5078428;28;20043;-71
2021/04/06 06:43:51;;;;;;;4.77;0.57;;;3.10;87.20;;;;;;5082201;28;19920;-70
2021/04/06 06:46:22;;;;;;;5.53;0.40;;;3.20;86.90;;;;;;5059361;28;20037;-71
2021/04/06 06:48:56;;;;;;;5.80;0.90;;;3.30;86.50;;;;;;5083174;28;20510;-72
2021/04/06 06:51:31;;;;;;;4.47;0.67;;;3.30;86.40;;;;;;5077629;28;20074;-73
2021/04/06 06:53:58;;;;;;;3.37;0.47;;;3.30;86.30;;;;;;5083968;28;20392;-71
2021/04/06 06:56:36;;;;;;;1.50;0.30;;;3.40;86.30;;;;;;5075292;28;20060;-71
2021/04/06 06:59:04;;;;;;;4.37;0.70;;;3.50;86.30;;;;;;5076855;28;20543;-70
2021/04/06 07:01:32;;;;;;;3.13;0.67;;;3.70;85.80;;;;;;5073059;28;20115;-71
2021/04/06 07:04:13;;;;;;;3.37;0.50;;;3.80;85.60;;;;;;5080865;28;20446;-71
2021/04/06 07:06:42;;;;;;;3.33;0.50;;;3.90;85.20;;;;;;5071844;28;20404;-72
2021/04/06 07:09:26;;;;;;;6.17;0.60;;;3.90;84.80;;;;;;5080715;28;20132;-72
2021/04/06 07:12:03;;;;;;;5.23;0.83;;;4.00;84.70;;;;;;5071697;28;20036;-72
2021/04/06 07:14:31;;;;;;;4.27;0.70;;;4.00;84.70;;;;;;5085221;28;20039;-71
2021/04/06 07:17:08;;;;;;;3.03;0.60;;;3.90;84.70;;;;;;5089507;28;20031;-74
2021/04/06 07:19:39;;;;;;;2.20;0.50;;;3.80;84.50;;;;;;5082420;28;20108;-75
2021/04/06 07:22:09;;;;;;;2.40;0.40;;;3.60;84.80;;;;;;5085687;28;20044;-71
2021/04/06 07:24:38;;;;;;;1.90;0.40;;;3.60;85.00;;;;;;5086452;28;20101;-74
2021/04/06 07:27:14;;;;;;;3.37;0.50;;;3.50;85.60;;;;;;5090784;28;20040;-74
2021/04/06 07:29:41;;;;;;;7.13;0.70;;;3.50;85.10;;;;;;5090929;28;20060;-74
2021/04/06 07:32:14;;;;;;;3.70;0.60;;;3.60;84.80;;;;;;5091655;28;20111;-75
2021/04/06 07:34:43;;;;;;;4.72;0.50;;;3.60;84.60;;;;;;5059246;28;20097;-74
2021/04/06 07:37:12;;;;;;;2.00;0.40;;;3.70;84.60;;;;;;5088526;28;20036;-71
2021/04/06 07:39:40;;;;;;;4.07;0.50;;;3.80;84.50;;;;;;5089834;28;20071;-75
2021/04/06 07:42:10;;;;;;;3.07;0.97;;;3.90;84.20;;;;;;5087158;28;20232;-71
2021/04/06 07:44:38;;;;;;;2.50;0.40;;;4.10;84.20;;;;;;5086111;28;20105;-71
2021/04/06 07:47:04;;;;;;;2.10;0.40;;;4.20;84.00;;;;;;5091610;28;20118;-71
2021/04/06 07:49:37;;;;;;;7.63;0.67;;;4.50;83.60;;;;;;5076291;28;20068;-75
2021/04/06 07:52:16;;;;;;;4.97;0.80;;;4.70;82.70;;;;;;5084985;28;20106;-70
2021/04/06 07:54:50;;;;;;;5.77;0.60;;;4.70;81.30;;;;;;5086451;28;20040;-70
2021/04/06 07:57:18;;;;;;;4.97;0.57;;;4.70;81.40;;;;;;5090408;28;20395;-71
2021/04/06 07:59:49;;;;;;;5.27;0.80;;;4.80;81.10;;;;;;5072205;28;20043;-70
2021/04/06 08:02:20;;;;;;;6.45;1.02;;;4.90;81.30;;;;;;5088613;28;20055;-74
2021/04/06 08:04:47;;;;;;;3.17;0.70;;;5.00;80.70;;;;;;5071542;28;20442;-70
2021/04/06 08:07:20;;;;;;;5.13;0.83;;;4.90;80.70;;;;;;5083610;28;20048;-71
2021/04/06 08:09:47;;;;;;;6.17;0.67;;;4.80;80.50;;;;;;5085548;28;20414;-70
2021/04/06 08:12:30;;;;;;;1.60;0.50;;;4.70;79.70;;;;;;5089794;28;20078;-73
2021/04/06 08:15:09;;;;;;;3.70;0.60;;;4.60;79.90;;;;;;5089588;28;20058;-70
2021/04/06 08:18:08;;;;;;;3.20;0.63;;;4.60;78.90;;;;;;5089820;28;20075;-70
2021/04/06 08:20:40;;;;;;;5.60;0.60;;;4.60;79.40;;;;;;5076363;28;20048;-75
2021/04/06 08:23:40;;;;;;;4.55;0.63;;;4.60;78.30;;;;;;5091647;28;20047;-70
2021/04/06 08:26:38;;;;;;;5.03;0.60;;;4.60;78.10;;;;;;5094086;28;20395;-70
2021/04/06 08:29:23;;;;;;;2.13;0.30;;;4.80;78.20;;;;;;5089242;28;20056;-71
2021/04/06 08:32:13;;;;;;;2.87;0.30;;;5.00;77.20;;;;;;5095184;28;20047;-73
2021/04/06 08:35:06;;;;;;;2.43;0.40;;;5.20;77.60;;;;;;5093970;28;20036;-74
2021/04/06 08:37:38;;;;;;;2.33;0.32;;;5.20;74.80;;;;;;5091810;28;20394;-73
2021/04/06 08:40:08;;;;;;;3.35;0.70;;;5.10;74.80;;;;;;5095326;28;20044;-70
2021/04/06 08:42:36;;;;;;;5.77;0.50;;;4.90;74.40;;;;;;5093876;28;20052;-74
2021/04/06 08:45:04;;;;;;;1.93;0.40;;;4.80;75.10;;;;;;5094437;28;20036;-74
2021/04/06 08:47:47;;;;;;;5.40;0.73;;;4.80;75.00;;;;;;5087686;28;20078;-74
2021/04/06 08:50:35;;;;;;;2.13;0.30;;;4.80;75.00;;;;;;5094297;28;20048;-74
2021/04/06 08:53:03;;;;;;;3.80;0.47;;;4.90;75.30;;;;;;5092765;28;20093;-74
2021/04/06 08:55:29;;;;;;;3.10;0.27;;;5.10;75.40;;;;;;5093043;28;20040;-74
2021/04/06 08:58:00;;;;;;;3.53;0.47;;;5.20;75.20;;;;;;5102752;28;20443;-75
2021/04/06 09:00:28;;;;;;;3.70;0.40;;;5.50;74.80;;;;;;5101516;27;20090;-75
2021/04/06 09:03:05;;;;;;;2.15;0.40;;;5.60;74.30;;;;;;5093059;28;20040;-75
2021/04/06 09:05:31;;;;;;;2.13;0.20;;;5.60;74.20;;;;;;5093285;28;20047;-74
2021/04/06 09:07:58;;;;;;;3.37;0.40;;;5.70;74.30;;;;;;5087891;28;20441;-75
2021/04/06 09:10:36;;;;;;;1.93;0.90;;;5.50;73.20;;;;;;5092806;28;20501;-74
2021/04/06 09:13:02;;;;;;;4.00;0.67;;;5.30;73.80;;;;;;5093853;28;20060;-74
2021/04/06 09:15:29;;;;;;;1.27;0.30;;;5.10;74.20;;;;;;5091783;28;20036;-71
2021/04/06 09:18:02;;;;;;;2.23;0.30;;;5.00;74.70;;;;;;5091153;28;20106;-71
2021/04/06 09:20:28;;;;;;;1.02;0.20;;;5.00;74.80;;;;;;5086505;28;20052;-71
2021/04/06 09:22:55;;;;;;;0.93;0.20;;;5.00;75.30;;;;;;5092658;28;20369;-71
2021/04/06 09:25:25;;;;;;;1.37;0.20;;;5.10;75.20;;;;;;5092828;28;20059;-72
2021/04/06 09:28:00;;;;;;;1.15;0.20;;;5.20;74.40;;;;;;5092318;28;20073;-71
2021/04/06 09:30:32;;;;;;;2.30;0.38;;;5.20;74.60;;;;;;5086364;28;20040;-71
2021/04/06 09:33:10;;;;;;;1.70;0.37;;;5.30;73.10;;;;;;5092749;28;20040;-71
2021/04/06 09:35:38;;;;;;;2.22;0.28;;;5.30;73.30;;;;;;5094248;28;20044;-71
2021/04/06 09:38:05;;;;;;;3.10;0.40;;;5.50;72.80;;;;;;5094197;28;20060;-71
2021/04/06 09:40:35;;;;;;;1.63;0.20;;;5.70;71.90;;;;;;5094462;28;20381;-71
2021/04/06 09:43:03;;;;;;;4.23;0.33;;;6.00;72.40;;;;;;5093585;28;20127;-71
2021/04/06 09:45:30;;;;;;;3.07;0.30;;;6.30;72.10;;;;;;5093985;28;20433;-71
2021/04/06 09:47:57;;;;;;;3.37;0.57;;;6.40;71.60;;;;;;5091486;28;20106;-72
2021/04/06 09:50:26;;;;;;;2.67;0.63;;;6.40;70.70;;;;;;5085197;28;20145;-77
2021/04/06 09:52:54;;;;;;;3.17;0.67;;;6.00;71.40;;;;;;5087221;28;20048;-76
2021/04/06 09:55:25;;;;;;;2.03;0.77;;;5.50;73.20;;;;;;5081021;28;20032;-72
2021/04/06 09:58:00;;;;;;;3.97;0.30;;;5.20;74.90;;;;;;5088841;28;20064;-72
2021/04/06 10:00:29;;;;;;;1.33;0.20;;;5.00;75.30;;;;;;5117073;27;20044;-72
2021/04/06 10:03:12;;;;;;;3.57;0.30;;;4.90;75.70;;;;;;5086201;28;20097;-72
2021/04/06 10:05:42;;;;;;;2.58;0.28;;;5.00;75.60;;;;;;5092546;28;20051;-75
2021/04/06 10:08:14;;;;;;;1.20;0.30;;;5.00;75.60;;;;;;5083187;28;20051;-75
2021/04/06 10:10:49;;;;;;;1.53;0.23;;;5.00;75.00;;;;;;5062608;28;20051;-76
2021/04/06 10:13:19;;;;;;;1.03;0.20;;;5.20;75.70;;;;;;5093445;28;20119;-75
2021/04/06 10:15:46;;;;;;;2.03;0.20;;;5.40;74.80;;;;;;5075711;28;20100;-73
2021/04/06 10:18:14;;;;;;;1.77;0.20;;;5.70;74.40;;;;;;5074214;28;20093;-73
2021/04/06 10:20:50;;;;;;;1.50;0.20;;;5.80;73.00;;;;;;5091418;28;20046;-74
2021/04/06 10:23:33;;;;;;;1.60;0.20;;;6.10;72.30;;;;;;5088032;28;20052;-76
2021/04/06 10:26:01;;;;;;;1.93;0.20;;;6.50;72.00;;;;;;5074350;28;20052;-75
2021/04/06 10:28:31;;;;;;;1.83;0.30;;;6.70;71.20;;;;;;5092956;28;20437;-76
2021/04/06 10:31:00;;;;;;;1.80;0.50;;;6.70;70.60;;;;;;5092854;28;20040;-70
2021/04/06 10:33:36;;;;;;;4.27;0.73;;;6.90;70.20;;;;;;5092701;28;20058;-70
2021/04/06 10:36:07;;;;;;;2.53;0.30;;;7.00;70.50;;;;;;5090264;28;20067;-70
2021/04/06 10:38:41;;;;;;;2.67;0.30;;;7.20;70.70;;;;;;5086345;28;20040;-72
2021/04/06 10:41:11;;;;;;;0.97;0.23;;;7.10;69.50;;;;;;5092730;28;20384;-75
2021/04/06 10:43:42;;;;;;;1.70;0.20;;;7.10;69.40;;;;;;5083089;28;20052;-74
2021/04/06 10:46:11;;;;;;;2.00;0.30;;;7.40;69.90;;;;;;5088881;28;20078;-74
2021/04/06 10:48:41;;;;;;;2.87;1.27;;;7.90;67.40;;;;;;5092894;28;20116;-74
2021/04/06 10:51:21;;;;;;;3.50;0.90;;;7.90;68.00;;;;;;5101795;28;20066;-75
2021/04/06 10:53:54;;;;;;;4.57;0.50;;;7.70;67.20;;;;;;5082871;28;20040;-73
2021/04/06 10:56:24;;;;;;;6.20;0.43;;;7.20;66.20;;;;;;5087640;28;20064;-75
2021/04/06 10:58:56;;;;;;;3.40;0.40;;;6.70;67.70;;;;;;5092603;28;20048;-76
2021/04/06 11:01:25;;;;;;;;;;;6.30;69.20;;;;;;5087120;28;20070;-76
2021/04/06 11:03:58;;;;;;;3.83;0.30;;;5.80;70.60;;;;;;5066326;28;20299;-69
2021/04/06 11:06:30;;;;;;;;;;;5.40;71.90;;;;;;5090495;28;20040;-70
2021/04/06 11:08:58;;;;;;;3.00;1.17;;;5.10;72.40;;;;;;5090739;28;19977;-74
2021/04/06 11:11:31;;;;;;;2.33;0.20;;;4.90;73.10;;;;;;5084404;28;20093;-73
2021/04/06 11:14:04;;;;;;;1.67;0.40;;;4.90;73.30;;;;;;5087278;28;20048;-74
2021/04/06 11:16:33;;;;;;;0.87;0.20;;;4.90;73.50;;;;;;5089387;28;20395;-76
2021/04/06 11:19:15;;;;;;;1.80;0.40;;;5.00;73.40;;;;;;5084213;28;20090;-81
2021/04/06 11:21:47;;;;;;;2.00;0.30;;;5.20;72.90;;;;;;5091972;28;20036;-76
2021/04/06 11:24:15;;;;;;;0.80;0.20;;;5.30;72.30;;;;;;5086098;28;20033;-73
2021/04/06 11:26:43;;;;;;;1.90;0.20;;;5.50;72.50;;;;;;5081832;28;20031;-71
2021/04/06 11:29:12;;;;;;;2.37;0.50;;;6.30;71.40;;;;;;5081753;28;20052;-75
2021/04/06 11:31:40;;;;;;;1.70;0.33;;;6.70;69.20;;;;;;5086266;28;20036;-74
2021/04/06 11:34:08;;;;;;;2.90;0.37;;;7.00;67.60;;;;;;5096234;28;20036;-74
2021/04/06 11:36:35;;;;;;;3.03;0.40;;;7.70;66.20;;;;;;5081624;28;20064;-73
2021/04/06 11:39:08;;;;;;;3.23;0.40;;;8.10;64.60;;;;;;5086356;28;20040;-72
2021/04/06 11:41:35;;;;;;;3.08;0.30;;;8.10;63.90;;;;;;5080902;28;20036;-75
2021/04/06 11:44:03;;;;;;;1.63;0.30;;;7.60;64.90;;;;;;5084360;28;20051;-78
2021/04/06 11:46:30;;;;;;;2.30;0.20;;;7.10;66.60;;;;;;5085637;28;20063;-77
2021/04/06 11:48:57;;;;;;;0.33;0.10;;;6.50;67.60;;;;;;5080217;28;20130;-74
2021/04/06 11:51:23;;;;;;;0.40;0.07;;;5.80;69.40;;;;;;5053974;28;20431;-74
2021/04/06 11:53:50;;;;;;;1.33;0.17;;;5.20;71.30;;;;;;5084710;28;20445;-75
2021/04/06 11:56:17;;;;;;;0.70;0.20;;;4.80;72.50;;;;;;5085919;28;20052;-74
2021/04/06 11:58:43;;;;;;;1.13;0.20;;;4.50;73.40;;;;;;5087794;28;20119;-74
2021/04/06 12:01:28;;;;;;;0.38;0.10;;;4.30;74.10;;;;;;5076138;28;20051;-75
2021/04/06 12:03:55;;;;;;;0.23;0.10;;;4.20;74.60;;;;;;5090681;28;20068;-74
2021/04/06 12:06:23;;;;;;;0.60;0.10;;;4.10;74.70;;;;;;5090370;28;20445;-72
2021/04/06 12:08:49;;;;;;;0.33;0.10;;;3.90;74.80;;;;;;5090137;28;20399;-74
2021/04/06 12:11:16;;;;;;;1.03;0.20;;;3.90;74.90;;;;;;5057006;28;20048;-72
2021/04/06 12:13:43;;;;;;;3.50;0.23;;;3.90;75.20;;;;;;5088383;28;20044;-73
2021/04/06 12:16:10;;;;;;;0.17;0.10;;;3.90;75.10;;;;;;5091194;28;20516;-73
2021/04/06 12:18:37;;;;;;;2.07;0.20;;;4.10;75.10;;;;;;5090065;28;20051;-73
2021/04/06 12:21:08;;;;;;;0.60;0.10;;;4.10;74.90;;;;;;5054253;28;20086;-73
2021/04/06 12:23:39;;;;;;;;;;;4.30;74.90;;;;;;5084232;28;20074;-70
2021/04/06 12:26:07;;;;;;;1.90;0.20;;;4.40;74.80;;;;;;5089883;28;20257;-73
2021/04/06 12:28:34;;;;;;;2.97;0.30;;;4.40;74.60;;;;;;5090093;28;20040;-71
2021/04/06 12:31:03;;;;;;;1.13;0.20;;;4.50;74.70;;;;;;5091101;28;20040;-71
2021/04/06 12:33:31;;;;;;;5.83;1.03;;;4.70;74.60;;;;;;5089146;28;20064;-71
2021/04/06 12:36:00;;;;;;;1.60;0.33;;;4.90;74.80;;;;;;5090848;28;20736;-71
2021/04/06 12:38:27;;;;;;;2.90;0.30;;;5.10;74.50;;;;;;5091303;28;20086;-70
2021/04/06 12:40:55;;;;;;;1.83;0.20;;;5.30;74.00;;;;;;5072838;28;20410;-70
2021/04/06 12:43:22;;;;;;;2.87;0.30;;;5.60;73.80;;;;;;5089393;28;20043;-70
2021/04/06 12:45:49;;;;;;;1.43;0.30;;;5.80;73.50;;;;;;5091331;28;20491;-70
2021/04/06 12:48:15;;;;;;;2.83;0.40;;;6.20;73.00;;;;;;5085129;28;20094;-70
2021/04/06 12:50:42;;;;;;;6.40;0.43;;;6.50;72.10;;;;;;5080641;28;20044;-71
2021/04/06 12:53:08;;;;;;;3.03;0.33;;;6.50;71.30;;;;;;5057974;28;20123;-71
2021/04/06 12:55:35;;;;;;;2.73;0.30;;;6.40;71.90;;;;;;5089940;28;20127;-71
2021/04/06 12:58:02;;;;;;;2.73;0.30;;;6.20;72.30;;;;;;5091001;28;20043;-71
2021/04/06 13:00:30;;;;;;;1.07;0.10;;;5.90;72.30;;;;;;5090296;28;20036;-71
2021/04/06 13:02:56;;;;;;;2.03;0.20;;;5.50;72.70;;;;;;5094390;28;20043;-71
2021/04/06 13:05:23;;;;;;;2.93;0.33;;;5.10;72.20;;;;;;5093420;28;20040;-71
2021/04/06 13:07:52;;;;;;;1.33;0.10;;;4.90;72.00;;;;;;5093482;28;20040;-72
2021/04/06 13:10:19;;;;;;;0.70;0.10;;;4.70;72.60;;;;;;5076398;28;20044;-72
2021/04/06 13:12:46;;;;;;;1.03;0.20;;;4.70;72.80;;;;;;5075495;28;20044;-70
2021/04/06 13:15:13;;;;;;;1.70;0.13;;;4.80;72.40;;;;;;5093208;28;20544;-71
2021/04/06 13:17:40;;;;;;;1.63;0.20;;;4.80;71.40;;;;;;5093311;28;20463;-71